Time;durP1;ratioP1;P1;durP2;ratioP2;P2;SDS_P1;SDS_P2;PMS_P1;PMS_P2;Temp;Humidity;BMP_temperature;BMP_pressure;BME280_temperature;BME280_humidity;BME280_pressure;Samples;Min_cycle;Max_cycle;Signal;HPM_P1;HPM_P2
2021/03/06 00:00:53;;;;;;;3.40;2.97;;;3.10;71.70;;;;;;5007101;28;20568;-78
2021/03/06 00:03:19;;;;;;;3.70;3.30;;;3.10;71.90;;;;;;5022026;28;20159;-78
2021/03/06 00:05:45;;;;;;;3.77;2.70;;;3.00;72.10;;;;;;4981172;28;20847;-78
2021/03/06 00:08:10;;;;;;;3.00;2.70;;;3.00;72.30;;;;;;5014183;28;20198;-78
2021/03/06 00:10:36;;;;;;;3.70;3.20;;;3.00;72.60;;;;;;4996629;28;20229;-79
2021/03/06 00:13:02;;;;;;;6.63;3.20;;;2.90;73.00;;;;;;4980517;28;20637;-78
2021/03/06 00:15:28;;;;;;;5.13;3.10;;;2.90;73.10;;;;;;4996447;28;20190;-78
2021/03/06 00:17:57;;;;;;;3.33;2.50;;;2.90;73.30;;;;;;4996262;28;20250;-78
2021/03/06 00:20:23;;;;;;;3.42;2.72;;;2.90;73.50;;;;;;5013890;28;21167;-78
2021/03/06 00:22:53;;;;;;;3.63;3.25;;;2.80;73.60;;;;;;5022715;28;20174;-79
2021/03/06 00:25:19;;;;;;;3.40;3.10;;;2.80;73.90;;;;;;5016465;28;20173;-80
2021/03/06 00:27:45;;;;;;;6.60;3.88;;;2.80;74.00;;;;;;5000694;28;20525;-80
2021/03/06 00:30:14;;;;;;;4.37;3.30;;;2.70;74.10;;;;;;5041663;28;20216;-80
2021/03/06 00:32:40;;;;;;;3.72;3.00;;;2.70;74.50;;;;;;5025408;28;20985;-79
2021/03/06 00:35:07;;;;;;;6.90;4.35;;;2.70;74.70;;;;;;5008112;28;20165;-79
2021/03/06 00:37:33;;;;;;;7.20;4.63;;;2.70;75.10;;;;;;5003426;28;20170;-80
2021/03/06 00:39:59;;;;;;;5.60;4.40;;;2.60;75.30;;;;;;5000705;28;20193;-79
2021/03/06 00:42:24;;;;;;;5.50;5.00;;;2.70;75.60;;;;;;5034099;28;20228;-79
2021/03/06 00:44:51;;;;;;;7.88;5.00;;;2.70;76.20;;;;;;4999853;28;20579;-77
2021/03/06 00:47:16;;;;;;;6.50;4.97;;;2.60;76.40;;;;;;5033262;28;20173;-78
2021/03/06 00:49:42;;;;;;;7.53;4.77;;;2.60;76.60;;;;;;5033206;28;20185;-78
2021/03/06 00:52:10;;;;;;;7.30;5.70;;;2.60;76.90;;;;;;5015445;28;21045;-78
2021/03/06 00:54:36;;;;;;;7.45;5.38;;;2.60;77.10;;;;;;5033403;28;20570;-79
2021/03/06 00:57:02;;;;;;;7.67;5.00;;;2.60;77.50;;;;;;5015385;28;20174;-78
2021/03/06 00:59:28;;;;;;;7.67;6.00;;;2.50;77.70;;;;;;5015015;28;20684;-79
2021/03/06 01:01:54;;;;;;;7.40;5.50;;;2.50;77.80;;;;;;5015382;28;20619;-78
2021/03/06 01:04:20;;;;;;;9.88;6.97;;;2.50;78.00;;;;;;5015501;28;20568;-78
2021/03/06 01:06:46;;;;;;;6.70;5.40;;;2.50;78.40;;;;;;5015376;28;20178;-78
2021/03/06 01:09:12;;;;;;;6.43;4.37;;;2.50;78.60;;;;;;5015392;28;20569;-79
2021/03/06 01:11:38;;;;;;;5.82;4.30;;;2.50;78.90;;;;;;4982678;28;20617;-80
2021/03/06 01:14:03;;;;;;;6.17;4.00;;;2.50;79.00;;;;;;5002812;28;20222;-78
2021/03/06 01:16:29;;;;;;;6.70;3.70;;;2.40;79.10;;;;;;5010099;28;20173;-78
2021/03/06 01:18:55;;;;;;;4.03;3.50;;;2.40;79.20;;;;;;5001721;28;20181;-79
2021/03/06 01:21:21;;;;;;;5.00;3.10;;;2.40;79.30;;;;;;4990774;28;20624;-79
2021/03/06 01:23:47;;;;;;;6.50;3.63;;;2.40;79.60;;;;;;5003238;28;20684;-79
2021/03/06 01:26:13;;;;;;;5.10;3.20;;;2.30;79.80;;;;;;5032962;28;20180;-79
2021/03/06 01:28:39;;;;;;;4.63;3.53;;;2.40;80.10;;;;;;4983415;28;20770;-79
2021/03/06 01:31:05;;;;;;;4.00;3.40;;;2.30;80.20;;;;;;4997395;28;20205;-79
2021/03/06 01:33:31;;;;;;;5.60;3.70;;;2.30;80.40;;;;;;5007138;28;20687;-79
2021/03/06 01:35:57;;;;;;;4.18;3.50;;;2.30;80.70;;;;;;5010826;28;20209;-78
2021/03/06 01:38:26;;;;;;;4.22;3.60;;;2.30;80.80;;;;;;5023441;28;20170;-78
2021/03/06 01:40:54;;;;;;;7.38;4.20;;;2.30;81.00;;;;;;4999582;28;20553;-77
2021/03/06 01:43:21;;;;;;;5.15;4.65;;;2.20;81.10;;;;;;5020324;28;20194;-78
2021/03/06 01:45:47;;;;;;;4.97;3.65;;;2.30;81.50;;;;;;5026106;28;20177;-78
2021/03/06 01:48:13;;;;;;;5.93;3.97;;;2.30;81.70;;;;;;5008830;28;20724;-78
2021/03/06 01:50:42;;;;;;;5.13;3.85;;;2.20;81.80;;;;;;5027751;28;20239;-78
2021/03/06 01:53:10;;;;;;;8.70;7.00;;;2.20;82.20;;;;;;4991905;28;20208;-79
2021/03/06 01:55:38;;;;;;;7.20;4.80;;;2.20;82.40;;;;;;5025246;28;20177;-79
2021/03/06 01:58:05;;;;;;;7.75;5.75;;;2.20;82.70;;;;;;5004994;28;20210;-79
2021/03/06 02:00:32;;;;;;;7.53;5.18;;;2.20;83.00;;;;;;4989435;28;20585;-79
2021/03/06 02:03:01;;;;;;;7.82;5.25;;;2.10;83.20;;;;;;5014641;28;20212;-79
2021/03/06 02:05:27;;;;;;;7.45;5.70;;;2.10;83.70;;;;;;5032104;28;20161;-79
2021/03/06 02:07:54;;;;;;;7.18;5.93;;;2.10;83.90;;;;;;4997320;28;20235;-79
2021/03/06 02:10:29;;;;;;;8.77;5.50;;;2.10;84.20;;;;;;5014362;28;20276;-77
2021/03/06 02:12:59;;;;;;;6.45;5.32;;;2.10;85.10;;;;;;5014198;28;20204;-78
2021/03/06 02:15:45;;;;;;;6.70;4.88;;;2.00;84.70;;;;;;5006748;28;20178;-79
2021/03/06 02:18:35;;;;;;;8.15;5.78;;;2.10;85.40;;;;;;5013818;28;20253;-78
2021/03/06 02:21:33;;;;;;;7.82;5.20;;;2.00;86.20;;;;;;4997517;28;20192;-79
2021/03/06 02:24:26;;;;;;;7.40;5.03;;;2.00;86.40;;;;;;5014073;28;20166;-78
2021/03/06 02:27:15;;;;;;;6.00;4.75;;;2.00;86.60;;;;;;4997765;28;20260;-79
2021/03/06 02:30:03;;;;;;;6.57;5.38;;;1.90;86.80;;;;;;5013825;28;20173;-79
2021/03/06 02:32:34;;;;;;;8.68;5.38;;;1.90;86.60;;;;;;5035812;28;20618;-79
2021/03/06 02:35:11;;;;;;;5.25;4.72;;;1.90;86.50;;;;;;5014585;28;20165;-80
2021/03/06 02:38:06;;;;;;;6.57;4.50;;;1.90;87.40;;;;;;4998038;28;20170;-80
2021/03/06 02:40:35;;;;;;;5.85;5.15;;;1.80;87.80;;;;;;5032439;28;20189;-81
2021/03/06 02:43:02;;;;;;;9.13;4.88;;;1.90;87.30;;;;;;5016934;28;20173;-79
2021/03/06 02:45:29;;;;;;;7.35;4.70;;;1.90;87.80;;;;;;5038964;28;20166;-79
2021/03/06 02:47:57;;;;;;;6.90;5.68;;;1.80;87.90;;;;;;5020383;28;20177;-79
2021/03/06 02:50:23;;;;;;;7.82;5.15;;;1.80;88.40;;;;;;5019500;28;20217;-78
2021/03/06 02:52:48;;;;;;;8.35;4.78;;;1.80;88.50;;;;;;5003029;28;20197;-79
2021/03/06 02:55:17;;;;;;;7.63;5.83;;;1.80;89.00;;;;;;5000619;28;20177;-77
2021/03/06 02:57:53;;;;;;;7.82;4.45;;;1.80;89.50;;;;;;5014213;28;20247;-78
2021/03/06 03:00:47;;;;;;;6.20;5.15;;;1.80;89.40;;;;;;5013670;28;20193;-78
2021/03/06 03:03:17;;;;;;;5.53;4.50;;;1.80;90.20;;;;;;5013859;28;20292;-78
2021/03/06 03:05:46;;;;;;;5.80;4.28;;;1.80;90.00;;;;;;5031412;28;20174;-78
2021/03/06 03:08:29;;;;;;;6.68;5.05;;;1.80;90.00;;;;;;5002538;28;20259;-79
2021/03/06 03:11:02;;;;;;;6.80;5.63;;;1.80;90.30;;;;;;5018628;28;20238;-79
2021/03/06 03:13:51;;;;;;;6.70;4.90;;;1.80;90.30;;;;;;5015478;28;20209;-78
2021/03/06 03:16:34;;;;;;;6.15;4.72;;;1.80;90.30;;;;;;5034908;28;20535;-79
2021/03/06 03:19:14;;;;;;;6.20;5.10;;;1.80;90.50;;;;;;5017146;28;20573;-78
2021/03/06 03:21:47;;;;;;;8.75;5.25;;;1.70;90.70;;;;;;5000680;28;20231;-78
2021/03/06 03:24:17;;;;;;;6.75;5.72;;;1.70;90.60;;;;;;5034830;28;20181;-78
2021/03/06 03:26:43;;;;;;;11.00;6.30;;;1.70;90.70;;;;;;5000428;28;20181;-78
2021/03/06 03:29:12;;;;;;;7.03;6.20;;;1.70;90.70;;;;;;5016599;28;20182;-78
2021/03/06 03:31:40;;;;;;;7.80;5.55;;;1.70;91.00;;;;;;5016784;28;20229;-78
2021/03/06 03:34:08;;;;;;;9.00;6.50;;;1.70;90.90;;;;;;5034623;28;20178;-78
2021/03/06 03:36:35;;;;;;;6.28;5.60;;;1.70;91.10;;;;;;5000457;28;20169;-78
2021/03/06 03:39:03;;;;;;;7.95;6.32;;;1.70;91.20;;;;;;5034150;28;20598;-78
2021/03/06 03:41:29;;;;;;;7.38;6.32;;;1.70;91.40;;;;;;5000155;28;20194;-79
2021/03/06 03:43:55;;;;;;;10.07;6.03;;;1.70;91.60;;;;;;5016780;28;20173;-79
2021/03/06 03:46:21;;;;;;;6.57;5.90;;;1.70;91.70;;;;;;5022177;28;20305;-77
2021/03/06 03:48:49;;;;;;;11.98;6.72;;;1.70;91.80;;;;;;4999818;28;20188;-78
2021/03/06 03:51:15;;;;;;;6.70;5.22;;;1.70;91.90;;;;;;5000095;28;20287;-79
2021/03/06 03:53:42;;;;;;;6.65;5.13;;;1.70;92.00;;;;;;4999809;28;20221;-79
2021/03/06 03:56:08;;;;;;;6.88;5.57;;;1.70;92.10;;;;;;4984032;28;20170;-79
2021/03/06 03:58:34;;;;;;;7.75;6.20;;;1.70;92.10;;;;;;4999506;28;20645;-78
2021/03/06 04:01:02;;;;;;;8.38;5.72;;;1.70;92.20;;;;;;5000613;28;20230;-79
2021/03/06 04:03:28;;;;;;;8.85;5.88;;;1.60;92.30;;;;;;5016127;28;20691;-79
2021/03/06 04:05:56;;;;;;;9.80;6.43;;;1.60;92.40;;;;;;5033914;28;20584;-79
2021/03/06 04:08:22;;;;;;;8.20;6.40;;;1.60;92.60;;;;;;5015808;28;20249;-78
2021/03/06 04:10:48;;;;;;;10.60;6.95;;;1.60;92.70;;;;;;4999945;28;20247;-78
2021/03/06 04:13:17;;;;;;;7.10;6.20;;;1.60;92.80;;;;;;5016430;28;20198;-77
2021/03/06 04:15:43;;;;;;;7.80;5.70;;;1.60;93.00;;;;;;5016208;28;20172;-79
2021/03/06 04:18:08;;;;;;;7.80;6.23;;;1.60;93.10;;;;;;5033287;28;20618;-79
2021/03/06 04:20:35;;;;;;;6.50;5.43;;;1.60;93.20;;;;;;5015771;28;20189;-79
2021/03/06 04:23:01;;;;;;;7.55;5.65;;;1.60;93.30;;;;;;5020595;28;20575;-79
2021/03/06 04:25:27;;;;;;;6.97;5.82;;;1.60;93.30;;;;;;5033080;28;20267;-78
2021/03/06 04:27:53;;;;;;;5.80;5.20;;;1.50;93.40;;;;;;5033055;28;20232;-78
2021/03/06 04:30:20;;;;;;;5.83;5.20;;;1.50;93.50;;;;;;5015741;28;20258;-78
2021/03/06 04:32:45;;;;;;;7.65;5.60;;;1.50;93.70;;;;;;4999342;28;20620;-78
2021/03/06 04:35:11;;;;;;;6.60;5.60;;;1.50;93.80;;;;;;4999289;28;20170;-77
2021/03/06 04:37:41;;;;;;;6.85;4.53;;;1.60;94.00;;;;;;4999109;28;20664;-77
2021/03/06 04:40:09;;;;;;;4.20;3.78;;;1.50;94.00;;;;;;5032876;28;20184;-80
2021/03/06 04:42:35;;;;;;;4.57;3.88;;;1.60;94.00;;;;;;4999298;28;20174;-77
2021/03/06 04:45:10;;;;;;;5.15;3.72;;;1.60;94.00;;;;;;5016540;28;20173;-79
2021/03/06 04:47:44;;;;;;;4.65;3.60;;;1.60;94.00;;;;;;4998920;28;20185;-78
2021/03/06 04:50:12;;;;;;;4.05;3.08;;;1.60;94.20;;;;;;4997133;28;20199;-78
2021/03/06 04:52:38;;;;;;;4.63;3.58;;;1.60;94.00;;;;;;4982804;28;20254;-78
2021/03/06 04:55:11;;;;;;;4.68;3.75;;;1.60;94.00;;;;;;4998845;28;20177;-78
2021/03/06 04:57:37;;;;;;;6.38;3.70;;;1.50;94.10;;;;;;5015107;28;20193;-78
2021/03/06 05:00:06;;;;;;;4.78;3.85;;;1.50;94.10;;;;;;5003882;28;20174;-78
2021/03/06 05:02:33;;;;;;;5.45;4.03;;;1.50;94.20;;;;;;5032711;28;20182;-78
2021/03/06 05:05:00;;;;;;;4.03;3.50;;;1.50;94.10;;;;;;5015239;28;20170;-78
2021/03/06 05:07:26;;;;;;;4.55;4.05;;;1.50;94.20;;;;;;5014855;28;20169;-78
2021/03/06 05:09:52;;;;;;;5.30;4.40;;;1.50;94.20;;;;;;5010956;28;20263;-78
2021/03/06 05:12:18;;;;;;;5.05;3.80;;;1.50;94.40;;;;;;5006472;28;20283;-78
2021/03/06 05:14:43;;;;;;;4.10;3.50;;;1.50;94.40;;;;;;5006753;28;20256;-79
2021/03/06 05:17:09;;;;;;;5.90;4.07;;;1.50;94.50;;;;;;5020600;28;20166;-79
2021/03/06 05:19:35;;;;;;;4.00;3.47;;;1.50;94.60;;;;;;5009616;28;20577;-79
2021/03/06 05:22:01;;;;;;;6.00;4.40;;;1.50;94.60;;;;;;5032428;28;20204;-79
2021/03/06 05:24:27;;;;;;;3.80;3.50;;;1.50;94.70;;;;;;5024137;28;20585;-79
2021/03/06 05:27:01;;;;;;;3.80;3.40;;;1.50;94.70;;;;;;5029944;28;20584;-79
2021/03/06 05:29:29;;;;;;;3.78;3.20;;;1.50;94.80;;;;;;5021570;28;20186;-79
2021/03/06 05:31:55;;;;;;;5.50;3.60;;;1.50;94.90;;;;;;5003973;28;20208;-78
2021/03/06 05:34:21;;;;;;;4.25;3.55;;;1.50;95.00;;;;;;5032301;28;20232;-78
2021/03/06 05:36:47;;;;;;;4.40;4.00;;;1.50;95.10;;;;;;5037142;28;20175;-78
2021/03/06 05:39:13;;;;;;;4.70;4.30;;;1.50;95.50;;;;;;5014301;28;20618;-79
2021/03/06 05:41:38;;;;;;;4.67;3.90;;;1.40;95.50;;;;;;5014574;28;20193;-78
2021/03/06 05:44:05;;;;;;;6.93;4.20;;;1.40;95.40;;;;;;5032007;28;20227;-78
2021/03/06 05:46:31;;;;;;;6.72;3.40;;;1.40;95.50;;;;;;5031793;28;20560;-78
2021/03/06 05:48:57;;;;;;;6.80;3.22;;;1.50;95.60;;;;;;5013953;28;20173;-79
2021/03/06 05:51:24;;;;;;;4.43;3.73;;;1.50;95.70;;;;;;4997713;28;20584;-79
2021/03/06 05:53:52;;;;;;;3.97;3.58;;;1.50;95.60;;;;;;5014438;28;20628;-79
2021/03/06 05:56:20;;;;;;;5.35;4.32;;;1.50;95.60;;;;;;5013995;28;20591;-78
2021/03/06 05:58:48;;;;;;;4.45;4.05;;;1.60;95.80;;;;;;5031550;28;20256;-79
2021/03/06 06:01:15;;;;;;;5.05;3.25;;;1.60;95.90;;;;;;5013776;28;20276;-79
2021/03/06 06:03:42;;;;;;;3.75;3.45;;;1.60;95.80;;;;;;5031924;28;20193;-79
2021/03/06 06:06:13;;;;;;;3.55;3.25;;;1.60;95.70;;;;;;5031598;28;20166;-78
2021/03/06 06:08:42;;;;;;;4.88;4.00;;;1.60;95.80;;;;;;5031382;28;20249;-78
2021/03/06 06:11:08;;;;;;;3.88;3.42;;;1.60;95.70;;;;;;4997680;28;20197;-78
2021/03/06 06:13:34;;;;;;;4.40;3.83;;;1.60;95.70;;;;;;5009096;28;20206;-79
2021/03/06 06:15:59;;;;;;;4.67;4.20;;;1.60;95.70;;;;;;4997526;28;20650;-79
2021/03/06 06:18:26;;;;;;;4.25;3.60;;;1.60;95.80;;;;;;4997274;28;20174;-79
2021/03/06 06:20:52;;;;;;;7.40;4.13;;;1.60;96.00;;;;;;5013821;28;20228;-78
2021/03/06 06:23:18;;;;;;;8.10;4.47;;;1.60;96.00;;;;;;5014134;28;20243;-78
2021/03/06 06:25:45;;;;;;;5.22;4.82;;;1.60;96.10;;;;;;5013757;28;20178;-78
2021/03/06 06:28:11;;;;;;;4.63;3.85;;;1.60;96.10;;;;;;5013224;28;20166;-78
2021/03/06 06:30:37;;;;;;;4.23;3.83;;;1.60;96.10;;;;;;5013582;28;20185;-79
2021/03/06 06:33:03;;;;;;;6.97;3.80;;;1.60;96.20;;;;;;5013431;28;20628;-79
2021/03/06 06:35:39;;;;;;;3.33;3.03;;;1.70;96.10;;;;;;5013834;28;20570;-79
2021/03/06 06:38:06;;;;;;;4.10;3.72;;;1.70;96.40;;;;;;5013300;28;20587;-79
2021/03/06 06:40:34;;;;;;;6.43;3.92;;;1.70;96.20;;;;;;5031336;28;20194;-79
2021/03/06 06:43:01;;;;;;;3.15;2.85;;;1.80;96.70;;;;;;5031521;28;20169;-79
2021/03/06 06:45:36;;;;;;;4.00;3.55;;;1.80;96.40;;;;;;5031328;28;20174;-79
2021/03/06 06:48:09;;;;;;;2.97;2.67;;;1.80;96.60;;;;;;5015952;28;20173;-80
2021/03/06 06:50:35;;;;;;;3.88;3.10;;;1.80;96.60;;;;;;5021180;28;20248;-79
2021/03/06 06:53:01;;;;;;;3.30;2.80;;;1.90;96.90;;;;;;5043531;28;20205;-79
2021/03/06 06:55:38;;;;;;;4.43;3.80;;;1.90;96.60;;;;;;5001214;28;20177;-79
2021/03/06 06:58:04;;;;;;;5.65;4.15;;;1.90;96.80;;;;;;5000657;28;20169;-79
2021/03/06 07:00:35;;;;;;;5.63;3.55;;;1.90;96.60;;;;;;5034831;28;20212;-78
2021/03/06 07:03:02;;;;;;;3.40;2.88;;;2.00;96.70;;;;;;5017459;28;20200;-78
2021/03/06 07:05:36;;;;;;;3.95;3.42;;;2.00;96.80;;;;;;5017391;28;20177;-78
2021/03/06 07:08:05;;;;;;;4.00;3.60;;;2.10;97.00;;;;;;5000409;28;20653;-79
2021/03/06 07:10:37;;;;;;;4.38;3.97;;;2.10;97.00;;;;;;5017293;28;20217;-78
2021/03/06 07:13:09;;;;;;;4.28;3.80;;;2.20;97.20;;;;;;5016983;28;20620;-78
2021/03/06 07:15:40;;;;;;;3.42;3.10;;;2.30;97.20;;;;;;5017338;28;20177;-79
2021/03/06 07:18:08;;;;;;;5.82;3.65;;;2.40;97.20;;;;;;5034341;28;20196;-79
2021/03/06 07:20:40;;;;;;;3.90;3.50;;;2.40;97.30;;;;;;5017098;28;20193;-79
2021/03/06 07:23:15;;;;;;;4.43;4.03;;;2.50;97.50;;;;;;5034779;28;20252;-80
2021/03/06 07:25:41;;;;;;;4.75;4.25;;;2.60;97.70;;;;;;5000722;28;20173;-79
2021/03/06 07:28:07;;;;;;;4.20;3.77;;;2.60;97.60;;;;;;5022323;28;20531;-80
2021/03/06 07:30:33;;;;;;;4.30;3.75;;;2.70;97.60;;;;;;4987852;28;21199;-79
2021/03/06 07:33:04;;;;;;;5.35;3.58;;;2.80;97.80;;;;;;4993386;28;20198;-79
2021/03/06 07:35:37;;;;;;;4.90;4.13;;;2.90;97.90;;;;;;4994336;28;20174;-79
2021/03/06 07:38:09;;;;;;;4.35;3.75;;;3.00;97.90;;;;;;5002930;28;20175;-79
2021/03/06 07:40:48;;;;;;;3.60;3.30;;;3.20;98.00;;;;;;4964622;28;20190;-79
2021/03/06 07:43:20;;;;;;;4.53;4.13;;;3.30;98.20;;;;;;5006861;28;20169;-79
2021/03/06 07:45:49;;;;;;;4.72;4.10;;;3.40;98.10;;;;;;4988533;28;20209;-78
2021/03/06 07:48:16;;;;;;;4.60;3.65;;;3.50;98.10;;;;;;4961082;28;20183;-79
2021/03/06 07:50:48;;;;;;;4.40;3.55;;;3.60;98.10;;;;;;4977314;28;20202;-80
2021/03/06 07:53:18;;;;;;;5.43;4.43;;;3.70;98.10;;;;;;4999131;28;20229;-80
2021/03/06 07:55:45;;;;;;;6.70;4.47;;;3.90;98.20;;;;;;5025904;28;20181;-79
2021/03/06 07:58:19;;;;;;;4.20;3.80;;;4.00;98.20;;;;;;4999868;28;20162;-79
2021/03/06 08:00:54;;;;;;;6.75;5.78;;;4.20;98.30;;;;;;5015180;28;20780;-80
2021/03/06 08:03:23;;;;;;;6.30;5.70;;;4.20;98.30;;;;;;5016363;28;20722;-80
2021/03/06 08:05:50;;;;;;;5.13;4.60;;;4.40;98.30;;;;;;5042222;28;20740;-78
2021/03/06 08:08:31;;;;;;;7.38;4.40;;;4.60;98.20;;;;;;5016403;28;20260;-79
2021/03/06 08:11:07;;;;;;;4.10;3.55;;;4.80;98.10;;;;;;5033835;28;20231;-80
2021/03/06 08:13:46;;;;;;;5.32;4.38;;;5.20;98.40;;;;;;5033599;28;20816;-80
2021/03/06 08:18:57;;;;;;;4.90;4.05;;;6.60;98.20;;;;;;5033324;28;20173;-79
2021/03/06 08:21:49;;;;;;;6.93;4.28;;;7.50;99.90;;;;;;5015917;28;20209;-81
2021/03/06 08:24:15;;;;;;;3.95;3.28;;;8.70;99.90;;;;;;5015791;28;20165;-79
2021/03/06 08:26:43;;;;;;;6.00;4.17;;;9.90;99.90;;;;;;5015912;28;20242;-80
2021/03/06 08:29:27;;;;;;;4.65;3.35;;;10.80;99.80;;;;;;5033091;28;21097;-80
2021/03/06 08:32:00;;;;;;;4.60;3.40;;;11.80;98.80;;;;;;4999194;28;20206;-78
2021/03/06 08:34:27;;;;;;;2.50;2.30;;;12.80;98.80;;;;;;5015597;28;20545;-79
2021/03/06 08:37:12;;;;;;;2.97;2.67;;;13.80;98.80;;;;;;4998991;28;20564;-79
2021/03/06 08:39:59;;;;;;;2.17;1.97;;;14.70;97.10;;;;;;5033230;28;20941;-80
2021/03/06 08:42:28;;;;;;;2.60;2.00;;;15.60;96.90;;;;;;5027771;28;20979;-79
2021/03/06 08:44:56;;;;;;;2.50;1.80;;;16.50;94.90;;;;;;5033282;28;20572;-80
2021/03/06 08:47:31;;;;;;;2.37;2.13;;;17.20;93.30;;;;;;5032412;28;20902;-79
2021/03/06 08:50:00;;;;;;;1.90;1.67;;;18.00;92.20;;;;;;5032817;28;20663;-80
2021/03/06 08:52:29;;;;;;;2.47;1.90;;;18.80;92.00;;;;;;5032808;28;20615;-80
2021/03/06 08:54:56;;;;;;;3.30;1.60;;;19.50;90.60;;;;;;5009214;28;20636;-79
2021/03/06 08:57:32;;;;;;;3.90;3.03;;;20.10;88.90;;;;;;4996300;28;20723;-78
2021/03/06 09:00:03;;;;;;;2.80;2.50;;;19.90;59.00;;;;;;5027586;28;20573;-79
2021/03/06 09:02:31;;;;;;;2.63;2.20;;;20.30;67.40;;;;;;5041974;28;20659;-79
2021/03/06 09:05:00;;;;;;;2.23;2.00;;;20.80;68.70;;;;;;5017663;28;20604;-79
2021/03/06 09:07:34;;;;;;;3.37;2.40;;;21.30;68.30;;;;;;5030234;28;20987;-80
2021/03/06 09:10:12;;;;;;;4.40;2.30;;;21.90;68.20;;;;;;5011839;28;20718;-80
2021/03/06 09:12:42;;;;;;;3.43;2.00;;;22.20;55.40;;;;;;4986315;28;20209;-78
2021/03/06 09:15:12;;;;;;;3.23;1.67;;;22.90;59.40;;;;;;5013392;28;21131;-79
2021/03/06 09:17:38;;;;;;;2.00;1.70;;;23.40;59.60;;;;;;5017933;28;20576;-79
2021/03/06 09:20:06;;;;;;;3.10;2.17;;;23.80;59.80;;;;;;5020317;28;20634;-79
2021/03/06 09:22:46;;;;;;;3.13;1.53;;;24.20;58.80;;;;;;5022209;28;20610;-79
2021/03/06 09:25:12;;;;;;;2.37;1.87;;;24.20;56.30;;;;;;5004296;28;20580;-80
2021/03/06 09:27:51;;;;;;;1.80;1.70;;;24.30;56.90;;;;;;5027484;28;20573;-80
2021/03/06 09:30:25;;;;;;;2.60;2.10;;;24.50;53.60;;;;;;5017540;28;20581;-79
2021/03/06 09:32:51;;;;;;;1.90;1.50;;;24.50;55.00;;;;;;4999534;28;20617;-79
2021/03/06 09:35:19;;;;;;;3.45;2.50;;;24.70;55.70;;;;;;5016492;28;21071;-78
2021/03/06 09:37:45;;;;;;;3.80;2.17;;;24.70;49.90;;;;;;4982497;28;20163;-80
2021/03/06 09:40:22;;;;;;;3.60;2.60;;;25.10;52.60;;;;;;5014385;28;20810;-80
2021/03/06 09:42:50;;;;;;;3.40;2.75;;;24.80;43.70;;;;;;4991247;28;20748;-79
2021/03/06 09:45:16;;;;;;;3.10;2.80;;;24.60;40.70;;;;;;5036211;28;20718;-79
2021/03/06 09:47:42;;;;;;;3.27;1.67;;;24.70;40.80;;;;;;5002701;28;20596;-79
2021/03/06 09:50:09;;;;;;;2.37;2.10;;;25.20;45.30;;;;;;5018836;28;20996;-79
2021/03/06 09:52:35;;;;;;;3.87;1.97;;;25.50;45.10;;;;;;5018371;28;20623;-80
2021/03/06 09:55:02;;;;;;;3.38;2.38;;;25.90;46.60;;;;;;5017746;28;20789;-77
2021/03/06 09:57:28;;;;;;;2.40;2.03;;;26.00;43.40;;;;;;5026526;28;20174;-79
2021/03/06 09:59:53;;;;;;;1.93;1.73;;;26.30;45.50;;;;;;5010872;28;20592;-80
2021/03/06 10:02:23;;;;;;;2.10;1.90;;;26.50;45.80;;;;;;5007331;28;20619;-79
2021/03/06 10:04:50;;;;;;;2.30;1.80;;;26.60;45.10;;;;;;5025723;28;20177;-80
2021/03/06 10:07:20;;;;;;;2.60;1.97;;;26.60;44.70;;;;;;5040740;22;20665;-80
2021/03/06 10:09:47;;;;;;;2.40;2.20;;;26.70;45.00;;;;;;5067564;28;20571;-81
2021/03/06 10:12:16;;;;;;;2.53;2.17;;;26.70;43.80;;;;;;5019888;28;20964;-81
2021/03/06 10:14:47;;;;;;;2.67;2.33;;;26.60;43.50;;;;;;5067937;28;20981;-81
2021/03/06 10:17:24;;;;;;;3.03;2.73;;;26.60;43.00;;;;;;5017249;28;20612;-82
2021/03/06 10:19:52;;;;;;;2.70;1.80;;;26.60;42.70;;;;;;5037006;28;20595;-82
2021/03/06 10:22:20;;;;;;;2.63;1.90;;;26.50;43.10;;;;;;5048893;28;21150;-82
2021/03/06 10:25:04;;;;;;;1.80;1.50;;;26.50;42.70;;;;;;5036454;28;21336;-82
2021/03/06 10:27:39;;;;;;;2.87;1.67;;;26.50;42.00;;;;;;5038074;28;20662;-82
2021/03/06 10:30:16;;;;;;;1.90;1.50;;;26.40;41.60;;;;;;5033485;28;21117;-82
2021/03/06 10:32:56;;;;;;;2.53;1.70;;;26.30;41.30;;;;;;5054586;28;21189;-80
2021/03/06 10:35:38;;;;;;;1.80;1.40;;;26.10;41.60;;;;;;5053984;28;20575;-80
2021/03/06 10:38:07;;;;;;;2.73;1.53;;;25.40;39.70;;;;;;5051810;28;20600;-81
2021/03/06 10:40:45;;;;;;;1.70;1.33;;;24.60;38.70;;;;;;5047941;28;20580;-81
2021/03/06 10:43:43;;;;;;;1.50;1.33;;;23.90;38.50;;;;;;5049945;28;20618;-81
2021/03/06 10:46:24;;;;;;;1.77;1.50;;;23.50;39.20;;;;;;5045251;28;20567;-81
2021/03/06 10:48:54;;;;;;;1.50;1.10;;;23.20;39.60;;;;;;5054317;28;20570;-81
2021/03/06 10:51:20;;;;;;;1.83;1.40;;;23.10;39.90;;;;;;5072243;28;20559;-80
2021/03/06 10:54:00;;;;;;;2.40;2.00;;;22.90;39.80;;;;;;5071480;28;20695;-81
2021/03/06 10:56:26;;;;;;;2.00;1.47;;;22.50;35.00;;;;;;5043781;28;20587;-81
2021/03/06 10:58:52;;;;;;;1.90;1.50;;;22.40;36.80;;;;;;5068102;28;20588;-80
2021/03/06 11:01:18;;;;;;;1.90;1.50;;;22.20;37.00;;;;;;5067949;28;20714;-80
2021/03/06 11:03:49;;;;;;;2.03;1.77;;;21.80;37.20;;;;;;5073866;28;20676;-81
2021/03/06 11:06:18;;;;;;;3.13;1.73;;;21.30;36.80;;;;;;5049623;28;20588;-79
2021/03/06 11:08:57;;;;;;;2.40;1.30;;;20.90;37.40;;;;;;5045324;28;20654;-80
2021/03/06 11:11:24;;;;;;;4.40;2.10;;;20.80;38.00;;;;;;5032096;28;20638;-79
2021/03/06 11:13:50;;;;;;;1.83;1.50;;;20.70;37.60;;;;;;5032911;28;20935;-81
2021/03/06 11:16:15;;;;;;;2.83;1.43;;;20.50;37.90;;;;;;5031976;28;20583;-81
2021/03/06 11:18:43;;;;;;;1.60;1.47;;;20.40;38.10;;;;;;5030600;28;20184;-80
2021/03/06 11:21:13;;;;;;;3.20;1.80;;;20.30;37.10;;;;;;5032864;28;20216;-80
2021/03/06 11:23:41;;;;;;;5.10;1.60;;;20.20;37.40;;;;;;5031576;28;20616;-81
2021/03/06 11:26:07;;;;;;;3.00;2.13;;;20.20;37.30;;;;;;5035689;28;20579;-80
2021/03/06 11:28:33;;;;;;;1.90;1.60;;;20.00;37.20;;;;;;5033856;28;20568;-80
2021/03/06 11:31:00;;;;;;;2.03;1.37;;;19.90;36.40;;;;;;5030191;28;20568;-80
2021/03/06 11:33:27;;;;;;;4.83;2.10;;;19.90;38.20;;;;;;5033474;28;20587;-80
2021/03/06 11:35:53;;;;;;;1.77;1.67;;;20.00;36.70;;;;;;5059204;28;20579;-79
2021/03/06 11:38:22;;;;;;;2.27;1.63;;;19.70;36.60;;;;;;5055247;28;20943;-80
2021/03/06 11:40:49;;;;;;;2.43;1.97;;;19.60;37.50;;;;;;5053863;28;21102;-80
2021/03/06 11:43:16;;;;;;;2.23;1.80;;;19.60;37.10;;;;;;5037332;28;20618;-80
2021/03/06 11:45:42;;;;;;;2.23;2.00;;;19.50;37.50;;;;;;5055304;28;21110;-81
2021/03/06 11:48:33;;;;;;;3.07;1.80;;;19.20;37.30;;;;;;5059989;28;20614;-82
2021/03/06 11:50:59;;;;;;;2.30;1.43;;;18.70;36.50;;;;;;5053923;28;20570;-82
2021/03/06 11:53:25;;;;;;;2.60;1.77;;;18.60;37.60;;;;;;5055602;28;20650;-82
2021/03/06 11:55:51;;;;;;;2.60;1.80;;;18.60;37.60;;;;;;5055266;28;20591;-81
2021/03/06 11:58:17;;;;;;;2.43;1.83;;;18.60;38.10;;;;;;5053880;28;20614;-82
2021/03/06 12:00:44;;;;;;;1.90;1.70;;;18.50;36.60;;;;;;5058564;28;20169;-81
2021/03/06 12:03:10;;;;;;;3.70;2.20;;;18.40;37.40;;;;;;5053563;28;20653;-80
2021/03/06 12:05:36;;;;;;;2.30;1.40;;;18.10;36.90;;;;;;5052968;28;21114;-80
2021/03/06 12:08:02;;;;;;;1.77;1.43;;;17.90;37.70;;;;;;5054069;28;20602;-80
2021/03/06 12:10:30;;;;;;;2.43;2.20;;;18.00;38.30;;;;;;5053600;28;20263;-80
2021/03/06 12:12:57;;;;;;;4.00;1.57;;;18.00;37.60;;;;;;5060297;28;20560;-80
2021/03/06 12:15:23;;;;;;;2.80;2.13;;;17.80;37.80;;;;;;5055771;28;20583;-80
2021/03/06 12:17:51;;;;;;;2.60;1.80;;;17.70;37.40;;;;;;5053197;28;20607;-80
2021/03/06 12:20:18;;;;;;;3.20;2.10;;;17.60;36.90;;;;;;5054373;28;20666;-80
2021/03/06 12:22:47;;;;;;;3.33;2.20;;;17.50;37.20;;;;;;5057417;28;20654;-79
2021/03/06 12:25:14;;;;;;;2.43;1.90;;;17.30;36.80;;;;;;5054816;28;21243;-79
2021/03/06 12:27:41;;;;;;;1.97;1.60;;;17.10;36.60;;;;;;5055220;28;20600;-79
2021/03/06 12:30:11;;;;;;;1.83;1.57;;;16.70;36.00;;;;;;5053787;28;20568;-79
2021/03/06 12:32:38;;;;;;;2.30;2.10;;;16.50;36.00;;;;;;5053953;28;20575;-79
2021/03/06 12:35:06;;;;;;;3.10;2.23;;;16.20;37.00;;;;;;5053428;28;20722;-80
2021/03/06 12:37:32;;;;;;;2.57;1.90;;;16.20;37.70;;;;;;5056789;28;21050;-79
2021/03/06 12:39:58;;;;;;;3.57;2.20;;;16.30;38.40;;;;;;5052061;28;20579;-79
2021/03/06 12:42:24;;;;;;;2.72;2.40;;;16.40;38.20;;;;;;5053018;28;21159;-80
2021/03/06 12:44:50;;;;;;;2.00;1.80;;;16.40;35.30;;;;;;5053951;28;20657;-80
2021/03/06 12:47:15;;;;;;;1.70;1.53;;;16.40;36.70;;;;;;5052679;28;21165;-79
2021/03/06 12:49:41;;;;;;;3.30;1.80;;;16.60;37.20;;;;;;5053308;28;20214;-80
2021/03/06 12:52:07;;;;;;;2.73;1.60;;;16.50;36.80;;;;;;5057132;28;20166;-80
2021/03/06 12:58:32;;;;;;;2.17;1.77;;;15.70;32.70;;;;;;5087358;22;20228;-78
2021/03/06 13:00:59;;;;;;;1.93;1.60;;;15.10;33.90;;;;;;5073170;28;20565;-78
2021/03/06 13:03:24;;;;;;;3.33;2.37;;;14.60;33.80;;;;;;5054982;28;20627;-78
2021/03/06 13:05:50;;;;;;;3.27;2.60;;;14.10;33.70;;;;;;5073010;28;20578;-78
2021/03/06 13:08:16;;;;;;;2.33;2.03;;;13.60;33.60;;;;;;5072335;28;20176;-78
2021/03/06 13:10:42;;;;;;;3.80;2.20;;;13.20;34.10;;;;;;5073627;28;20671;-78